Decoded Metar for SBBV (BOA VISTA in BRAZIL) (IATA:BVB) | Meteo·Mobile Aviation Weather
aviador You're here:

SBBV Decoded Metar

BOA VISTA in BRAZIL
Report Time2018-12-15 14:00:00
UTC Time2018-12-15 13:54:36
Flight Rules vfr VFR
Wind080° at 17 kt
W.Decomp.*RWY 08: 16.5 kt HW 4.1 kt RCW
W.Rank080° ranks 2
Current wind is above 080° avg. (7.5)
Visibility9999 m
Phenomena:N/A
Clouds:Scattered 035 Hf
Broken 080 Hf
Expected CloudBase > 4,000 ft AGL from Temp-Dew spread
Ceiling8,000 ft
Temp28°C (ISA +14)
Dew Point18°C (55% RH)
Heat Index28.9°C
AAT24.7°C
QNH1017 hPa
Density Alt2,201 ft
Elevation459 ft
Report Wrong Elevation
Raw Report
METAR SBBV 151400Z 08017KT 9999 SCT035 BKN080 28/18 Q1017=

Extra information for SBBV:More info

Metar Taf Metar & Taf Last 4 Metars F.Rules Stats Wind Profile Meteogram Temp Stats Airport Information Weather charts Add Link Nearby VenuesMetar ALERT Operation Metar Decoded Social comments